createdAt,value
2017-08-02T00:01:41.612Z,99.90
2017-08-02T00:04:09.244Z,99.90
2017-08-02T00:06:36.887Z,99.90
2017-08-02T00:09:04.644Z,99.90
2017-08-02T00:11:32.277Z,99.90
2017-08-02T00:14:00.125Z,99.90
2017-08-02T00:16:27.788Z,99.90
2017-08-02T00:18:55.425Z,99.90
2017-08-02T00:21:23.053Z,99.90
2017-08-02T00:23:51.023Z,99.90
2017-08-02T00:26:18.782Z,99.90
2017-08-02T00:28:46.403Z,99.90
2017-08-02T00:31:14.065Z,99.90
2017-08-02T00:33:41.704Z,99.90
2017-08-02T00:36:10.008Z,99.90
2017-08-02T00:38:37.669Z,99.90
2017-08-02T00:41:05.468Z,99.90
2017-08-02T00:43:33.102Z,99.60
2017-08-02T00:46:00.773Z,99.10
2017-08-02T00:48:28.402Z,98.70
2017-08-02T00:50:57.463Z,98.80
2017-08-02T00:53:25.162Z,98.80
2017-08-02T00:55:52.777Z,98.90
2017-08-02T00:58:20.389Z,98.80
2017-08-02T01:00:48.820Z,98.60
2017-08-02T01:03:16.431Z,98.50
2017-08-02T01:05:44.061Z,98.60
2017-08-02T01:08:12.403Z,98.80
2017-08-02T01:10:40.037Z,99.00
2017-08-02T01:13:07.878Z,98.90
2017-08-02T01:15:35.579Z,98.90
2017-08-02T01:18:03.212Z,98.80
2017-08-02T01:20:30.828Z,98.90
2017-08-02T01:22:58.710Z,99.00
2017-08-02T01:25:26.346Z,99.10
2017-08-02T01:27:53.977Z,98.70
2017-08-02T01:30:21.984Z,98.80
2017-08-02T01:32:50.266Z,98.90
2017-08-02T01:35:17.893Z,99.00
2017-08-02T01:37:45.562Z,99.10
2017-08-02T01:40:14.109Z,98.70
2017-08-02T01:42:41.757Z,98.60
2017-08-02T01:45:09.448Z,98.80
2017-08-02T01:47:37.105Z,99.00
2017-08-02T01:50:04.742Z,99.20
2017-08-02T01:52:32.509Z,99.70
2017-08-02T01:55:00.166Z,99.70
2017-08-02T01:57:27.825Z,99.80
2017-08-02T01:59:55.519Z,99.90
2017-08-02T02:02:23.182Z,99.90
2017-08-02T02:04:50.803Z,99.90
2017-08-02T02:07:18.471Z,99.90
2017-08-02T02:09:46.097Z,99.90
2017-08-02T02:12:13.722Z,99.90
2017-08-02T02:14:42.044Z,99.90
2017-08-02T02:17:10.437Z,99.90
2017-08-02T02:19:38.235Z,99.90
2017-08-02T02:22:05.916Z,99.90
2017-08-02T02:24:33.537Z,99.90
2017-08-02T02:27:01.161Z,99.90
2017-08-02T02:29:28.830Z,99.90
2017-08-02T02:31:56.452Z,99.90
2017-08-02T02:34:24.216Z,99.90
2017-08-02T02:36:51.899Z,99.90
2017-08-02T02:39:19.519Z,99.90
2017-08-02T02:41:47.145Z,99.90
2017-08-02T02:44:14.821Z,99.90
2017-08-02T02:46:42.458Z,99.90
2017-08-02T02:49:10.085Z,99.90
2017-08-02T02:51:37.753Z,99.90
2017-08-02T02:54:05.369Z,99.90
2017-08-02T02:56:33.754Z,98.40
2017-08-02T02:59:01.541Z,98.40
2017-08-02T03:01:29.157Z,98.50
2017-08-02T03:03:56.784Z,99.30
2017-08-02T03:06:24.443Z,99.90
2017-08-02T03:08:52.213Z,99.90
2017-08-02T03:11:19.885Z,99.90
2017-08-02T03:13:47.819Z,99.90
2017-08-02T03:16:15.449Z,99.90
2017-08-02T03:18:43.074Z,99.90
2017-08-02T03:21:10.770Z,99.90
2017-08-02T03:23:38.398Z,99.90
2017-08-02T03:26:06.017Z,99.90
2017-08-02T03:28:34.439Z,99.90
2017-08-02T03:31:02.058Z,99.90
2017-08-02T03:33:29.691Z,99.90
2017-08-02T03:35:57.352Z,99.90
2017-08-02T03:38:24.965Z,99.90
2017-08-02T03:40:52.586Z,99.90
2017-08-02T03:43:20.946Z,99.90
2017-08-02T03:45:48.568Z,99.90
2017-08-02T03:48:16.211Z,99.90
2017-08-02T03:50:44.649Z,99.90
2017-08-02T03:53:12.405Z,99.90
2017-08-02T03:55:40.153Z,99.90
2017-08-02T03:58:07.920Z,99.90
2017-08-02T04:00:35.542Z,99.90
2017-08-02T04:03:04.110Z,99.90
2017-08-02T04:05:32.369Z,99.90
2017-08-02T04:07:59.987Z,99.90
2017-08-02T04:10:27.604Z,99.90
2017-08-02T04:12:55.272Z,99.90
2017-08-02T04:15:22.893Z,99.90
2017-08-02T04:17:50.520Z,99.90
2017-08-02T04:20:18.549Z,99.90
2017-08-02T04:22:46.166Z,99.90
2017-08-02T04:25:13.779Z,99.90
2017-08-02T04:27:41.526Z,99.90
2017-08-02T04:30:09.157Z,99.90
2017-08-02T04:32:36.769Z,99.90
2017-08-02T04:35:04.440Z,99.90
2017-08-02T04:37:32.059Z,99.90
2017-08-02T04:39:59.680Z,99.90
2017-08-02T04:42:27.353Z,99.90
2017-08-02T04:44:55.728Z,99.90
2017-08-02T04:47:23.346Z,99.90
2017-08-02T04:49:51.011Z,99.90
2017-08-02T04:52:18.628Z,99.90
2017-08-02T04:54:46.249Z,99.90
2017-08-02T04:57:13.912Z,99.90
2017-08-02T04:59:41.543Z,99.90
2017-08-02T05:02:09.164Z,99.90
2017-08-02T05:04:38.134Z,99.90
2017-08-02T05:07:05.861Z,99.90
2017-08-02T05:09:33.488Z,99.90
2017-08-02T05:12:01.489Z,99.90
2017-08-02T05:14:29.286Z,99.90
2017-08-02T05:16:56.916Z,99.90
2017-08-02T05:19:24.585Z,99.90
2017-08-02T05:21:52.223Z,99.90
2017-08-02T05:24:19.875Z,99.90
2017-08-02T05:26:47.536Z,99.90
2017-08-02T05:29:15.169Z,99.90
2017-08-02T05:31:42.792Z,99.90
2017-08-02T05:34:10.703Z,99.90
2017-08-02T05:36:38.369Z,99.90
2017-08-02T05:39:06.631Z,99.90
2017-08-02T05:41:34.293Z,99.90
2017-08-02T05:44:02.233Z,99.90
2017-08-02T05:46:30.145Z,99.90
2017-08-02T05:48:57.831Z,99.90
2017-08-02T05:51:25.452Z,99.90
2017-08-02T05:53:53.078Z,99.90
2017-08-02T05:56:20.963Z,99.90
2017-08-02T05:58:48.643Z,99.90
2017-08-02T06:01:16.277Z,99.90
2017-08-02T06:03:43.953Z,99.80
2017-08-02T06:06:11.576Z,99.60
2017-08-02T06:08:39.503Z,98.90
2017-08-02T06:11:07.172Z,98.70
2017-08-02T06:13:34.809Z,98.20
2017-08-02T06:16:02.436Z,98.30
2017-08-02T06:18:30.912Z,97.50
2017-08-02T06:20:58.568Z,97.40
2017-08-02T06:23:26.246Z,96.50
2017-08-02T06:25:53.932Z,95.90
2017-08-02T06:28:21.562Z,95.30
2017-08-02T06:30:49.188Z,95.50
2017-08-02T06:33:16.852Z,95.00
2017-08-02T06:35:44.584Z,95.40
2017-08-02T06:38:12.383Z,94.20
2017-08-02T06:40:40.076Z,94.40
2017-08-02T06:43:07.710Z,93.90
2017-08-02T06:45:35.321Z,94.50
2017-08-02T06:48:03.756Z,93.90
2017-08-02T06:50:31.388Z,93.90
2017-08-02T06:52:59.004Z,95.10
2017-08-02T06:55:26.672Z,93.40
2017-08-02T06:57:54.300Z,93.80
2017-08-02T07:00:21.916Z,94.50
2017-08-02T07:02:50.408Z,94.00
2017-08-02T07:05:18.034Z,93.90
2017-08-02T07:07:45.664Z,92.20
2017-08-02T07:10:13.337Z,91.60
2017-08-02T07:12:40.952Z,91.00
2017-08-02T07:15:08.778Z,91.80
2017-08-02T07:17:36.629Z,90.60
2017-08-02T07:20:04.251Z,91.30
2017-08-02T07:22:31.873Z,90.10
2017-08-02T07:24:59.544Z,90.10
2017-08-02T07:27:27.168Z,89.10
2017-08-02T07:29:54.792Z,89.00
2017-08-02T07:32:23.223Z,90.40
2017-08-02T07:34:50.991Z,90.40
2017-08-02T07:37:18.618Z,90.30
2017-08-02T07:39:46.313Z,88.50
2017-08-02T07:42:13.927Z,88.60
2017-08-02T07:44:42.337Z,88.20
2017-08-02T07:47:10.040Z,88.20
2017-08-02T07:49:37.661Z,89.50
2017-08-02T07:52:05.285Z,88.60
2017-08-02T07:54:33.809Z,86.60
2017-08-02T07:57:01.424Z,86.80
2017-08-02T07:59:29.258Z,87.60
2017-08-02T08:01:56.945Z,82.50
2017-08-02T08:04:24.568Z,79.00
2017-08-02T08:06:52.188Z,79.20
2017-08-02T14:07:37.833Z,51.70
2017-08-02T14:10:05.480Z,52.00
2017-08-02T14:12:33.140Z,51.90
2017-08-02T14:15:00.811Z,53.30
2017-08-02T14:17:28.473Z,53.50
2017-08-02T14:19:56.103Z,53.60
2017-08-02T14:22:23.766Z,53.20
2017-08-02T14:24:51.634Z,52.80
2017-08-02T14:27:19.276Z,52.10
2017-08-02T14:29:46.933Z,52.80
2017-08-02T14:32:14.551Z,52.10
2017-08-02T14:34:42.790Z,53.80
2017-08-02T14:37:10.677Z,52.40
2017-08-02T14:39:38.290Z,53.40
2017-08-02T14:42:05.912Z,53.60
2017-08-02T14:44:33.588Z,54.20
2017-08-02T14:47:02.124Z,55.00
2017-08-02T14:49:29.902Z,52.30
2017-08-02T14:51:57.856Z,53.10
2017-08-02T14:54:25.484Z,53.40
2017-08-02T14:56:53.417Z,53.30
2017-08-02T14:59:21.078Z,52.70
2017-08-02T15:01:48.948Z,53.60
2017-08-02T15:04:16.571Z,53.60
2017-08-02T15:06:44.263Z,54.40
2017-08-02T15:09:11.877Z,54.20
2017-08-02T15:11:39.508Z,54.40
2017-08-02T15:14:07.181Z,54.40
2017-08-02T15:16:34.788Z,54.00
2017-08-02T15:19:02.411Z,54.40
2017-08-02T15:21:30.851Z,54.20
2017-08-02T15:23:58.472Z,54.30
2017-08-02T15:26:26.744Z,54.50
2017-08-02T15:28:54.412Z,54.50
2017-08-02T15:31:22.812Z,54.50
2017-08-02T15:33:50.437Z,54.40
2017-08-02T15:36:18.105Z,53.80
2017-08-02T15:38:45.729Z,54.20
2017-08-02T15:41:13.352Z,55.70
2017-08-02T15:43:41.028Z,54.60
2017-08-02T15:46:08.817Z,54.70
2017-08-02T15:48:36.434Z,55.00
2017-08-02T15:51:04.141Z,52.90
2017-08-02T15:53:31.803Z,54.20
2017-08-02T15:55:59.418Z,55.10
2017-08-02T15:58:27.096Z,54.00
2017-08-02T16:00:54.708Z,56.10
2017-08-02T16:03:22.558Z,56.50
2017-08-02T16:05:50.233Z,54.50
2017-08-02T16:08:17.869Z,53.20
2017-08-02T16:10:45.492Z,53.20
2017-08-02T16:13:13.942Z,53.70
2017-08-02T16:15:41.692Z,53.70
2017-08-02T16:18:09.301Z,53.20
2017-08-02T16:20:36.970Z,53.10
2017-08-02T16:23:04.599Z,52.80
2017-08-02T16:25:32.220Z,53.20
2017-08-02T16:28:00.035Z,52.50
2017-08-02T16:30:27.657Z,51.80
2017-08-02T16:32:55.436Z,52.90
2017-08-02T16:35:23.120Z,52.60
2017-08-02T16:37:50.931Z,53.30
2017-08-02T16:40:18.553Z,53.40
2017-08-02T16:42:46.226Z,53.70
2017-08-02T16:45:13.850Z,52.40
2017-08-02T16:47:41.492Z,53.10
2017-08-02T16:50:09.141Z,54.00
2017-08-02T16:52:36.796Z,53.00
2017-08-02T16:55:04.712Z,54.10
2017-08-02T16:57:32.393Z,53.20
2017-08-02T17:00:00.012Z,53.70
2017-08-02T17:02:27.623Z,53.10
2017-08-02T17:04:55.293Z,54.10
2017-08-02T17:07:22.934Z,54.50
2017-08-02T17:09:50.901Z,54.60
2017-08-02T17:12:18.602Z,55.90
2017-08-02T17:14:46.529Z,54.90
2017-08-02T17:17:14.600Z,55.20
2017-08-02T17:19:42.277Z,55.20
2017-08-02T17:22:09.901Z,56.00
2017-08-02T17:24:37.524Z,56.10
2017-08-02T17:27:05.196Z,56.60
2017-08-02T17:29:32.825Z,57.20
2017-08-02T17:32:00.448Z,57.80
2017-08-02T17:34:28.117Z,58.00
2017-08-02T17:36:55.744Z,58.20
2017-08-02T17:39:24.133Z,59.10
2017-08-02T17:41:51.820Z,59.00
2017-08-02T17:44:19.444Z,59.40
2017-08-02T17:46:47.075Z,59.80
2017-08-02T17:49:14.850Z,61.50
2017-08-02T17:51:42.457Z,64.30
2017-08-02T17:54:10.084Z,66.30
2017-08-02T17:56:37.777Z,69.00
2017-08-02T17:59:05.420Z,70.00
2017-08-02T18:01:33.062Z,69.50
2017-08-02T18:04:00.748Z,70.10
2017-08-02T18:06:28.373Z,71.90
2017-08-02T18:08:56.001Z,72.20
2017-08-02T18:11:23.676Z,72.80
2017-08-02T18:13:51.300Z,73.90
2017-08-02T18:16:19.692Z,74.20
2017-08-02T18:18:48.173Z,74.90
2017-08-02T18:21:15.789Z,74.90
2017-08-02T18:23:43.420Z,75.30
2017-08-02T18:26:11.093Z,76.40
2017-08-02T18:28:38.766Z,77.20
2017-08-02T18:31:06.395Z,77.50
2017-08-02T18:33:34.080Z,78.40
2017-08-02T18:36:01.777Z,78.70
2017-08-02T18:38:29.396Z,78.90
2017-08-02T18:40:57.136Z,79.10
2017-08-02T18:43:24.765Z,79.00
2017-08-02T18:45:52.584Z,79.10
2017-08-02T18:48:20.296Z,80.10
2017-08-02T18:50:47.929Z,81.10
2017-08-02T18:53:16.115Z,81.80
2017-08-02T18:55:44.311Z,81.70
2017-08-02T18:58:11.932Z,82.70
2017-08-02T19:00:39.567Z,83.30
2017-08-02T19:03:07.593Z,83.80
2017-08-02T19:05:35.274Z,83.60
2017-08-02T19:08:02.894Z,83.40
2017-08-02T19:10:30.781Z,83.70
2017-08-02T19:12:58.400Z,84.30
2017-08-02T19:15:26.112Z,85.70
2017-08-02T19:17:53.765Z,86.40
2017-08-02T19:20:21.402Z,86.30
2017-08-02T19:22:49.019Z,87.20
2017-08-02T19:25:16.709Z,87.20
2017-08-02T19:27:44.341Z,86.90
2017-08-02T19:30:11.982Z,87.70
2017-08-02T19:32:39.709Z,88.10
2017-08-02T19:35:07.328Z,88.20
2017-08-02T19:37:34.956Z,89.60
2017-08-02T19:40:02.619Z,89.40
2017-08-02T19:42:30.252Z,89.00
2017-08-02T19:44:59.318Z,89.90
2017-08-02T19:47:27.012Z,89.80
2017-08-02T19:49:55.400Z,90.00
2017-08-02T19:52:23.794Z,90.00
2017-08-02T19:54:51.479Z,90.00
2017-08-02T19:57:19.096Z,90.20
2017-08-02T19:59:46.723Z,90.50
2017-08-02T20:02:14.606Z,90.70
2017-08-02T20:04:42.240Z,90.70
2017-08-02T20:07:09.862Z,90.90
2017-08-02T20:09:38.144Z,91.00
2017-08-02T20:12:05.791Z,91.10
2017-08-02T20:14:33.418Z,91.20
2017-08-02T20:17:01.104Z,91.80
2017-08-02T20:19:28.730Z,91.70
2017-08-02T20:21:56.360Z,91.90
2017-08-02T20:24:24.036Z,91.90
2017-08-02T20:26:51.661Z,91.90
2017-08-02T20:29:19.383Z,92.00
2017-08-02T20:31:47.458Z,92.10
2017-08-02T20:34:15.093Z,92.10
2017-08-02T20:36:42.905Z,92.30
2017-08-02T20:39:10.708Z,92.20
2017-08-02T20:41:40.094Z,92.40
2017-08-02T20:44:09.363Z,92.40
2017-08-02T20:46:37.374Z,92.50
2017-08-02T20:49:06.134Z,92.80
2017-08-02T20:51:35.925Z,92.90
2017-08-02T20:54:04.663Z,92.90
2017-08-02T20:56:33.408Z,93.20
2017-08-02T20:59:02.099Z,93.20
2017-08-02T21:01:30.038Z,93.30
2017-08-02T21:03:59.623Z,93.60
2017-08-02T21:06:27.701Z,93.60
2017-08-02T21:08:57.177Z,93.80
2017-08-02T21:11:25.144Z,93.70
2017-08-02T21:13:53.724Z,93.60
2017-08-02T21:16:21.621Z,93.60
2017-08-02T21:18:49.647Z,93.50
2017-08-02T21:21:18.127Z,93.60
2017-08-02T21:23:46.135Z,93.60
2017-08-02T21:26:13.990Z,93.70
2017-08-02T21:28:43.366Z,93.90
2017-08-02T21:31:12.471Z,94.10
2017-08-02T21:33:42.715Z,94.10
2017-08-02T21:36:10.592Z,94.30
2017-08-02T21:38:41.679Z,94.20
2017-08-02T21:41:09.959Z,94.30
2017-08-02T21:43:37.971Z,94.50
2017-08-02T21:46:05.982Z,94.70
2017-08-02T21:48:36.143Z,94.90
2017-08-02T21:51:05.421Z,94.90
2017-08-02T21:53:34.348Z,94.90
2017-08-02T21:56:02.401Z,94.90
2017-08-02T21:58:30.238Z,95.00
2017-08-02T22:01:01.005Z,95.00
2017-08-02T22:03:29.988Z,95.10
2017-08-02T22:05:57.862Z,95.30
2017-08-02T22:08:25.732Z,95.30
2017-08-02T22:10:54.938Z,95.30
2017-08-02T22:13:22.571Z,95.40
2017-08-02T22:15:50.196Z,95.40
2017-08-02T22:18:18.510Z,95.40
2017-08-02T22:20:46.132Z,95.50
2017-08-02T22:23:13.756Z,95.60
2017-08-02T22:25:41.453Z,95.60
2017-08-02T22:28:10.100Z,95.70
2017-08-02T22:30:37.719Z,95.70
2017-08-02T22:33:05.637Z,95.80
2017-08-02T22:35:33.266Z,95.80
2017-08-02T22:38:00.888Z,95.90
2017-08-02T22:40:29.904Z,96.00
2017-08-02T22:42:57.530Z,95.80
2017-08-02T22:45:25.158Z,95.90
2017-08-02T22:47:52.838Z,96.00
2017-08-02T22:50:20.458Z,96.10
2017-08-02T22:52:48.098Z,96.10
2017-08-02T22:55:16.802Z,96.20
2017-08-02T22:57:44.421Z,96.20
2017-08-02T23:00:12.060Z,96.30
2017-08-02T23:02:39.743Z,96.30
2017-08-02T23:05:07.366Z,96.30
2017-08-02T23:07:34.995Z,96.40
2017-08-02T23:10:03.457Z,96.80
2017-08-02T23:12:31.083Z,96.50
2017-08-02T23:14:58.709Z,96.60
2017-08-02T23:17:26.409Z,96.50
2017-08-02T23:19:54.024Z,96.50
2017-08-02T23:22:21.661Z,96.60
2017-08-02T23:24:49.328Z,96.50
2017-08-02T23:27:16.954Z,96.50
2017-08-02T23:29:44.632Z,96.60
2017-08-02T23:32:12.619Z,96.60
2017-08-02T23:34:41.002Z,96.80
2017-08-02T23:37:08.624Z,96.70
2017-08-02T23:39:36.292Z,96.60
2017-08-02T23:42:04.076Z,96.70
2017-08-02T23:44:31.751Z,96.70
2017-08-02T23:47:00.158Z,96.90
2017-08-02T23:49:28.593Z,97.00
2017-08-02T23:51:56.218Z,97.00
2017-08-02T23:54:23.978Z,96.90
2017-08-02T23:56:51.610Z,96.80
2017-08-02T23:59:19.233Z,97.20
